Time;durP1;ratioP1;P1;durP2;ratioP2;P2;SDS_P1;SDS_P2;PMS_P1;PMS_P2;Temp;Humidity;BMP_temperature;BMP_pressure;BME280_temperature;BME280_humidity;BME280_pressure;Samples;Min_cycle;Max_cycle;Signal;HPM_P1;HPM_P2
2022/06/17 00:02:20;;;;;;;2.97;1.95;;;18.20;99.90;;;;;;20798086;28;20517;-38
2022/06/17 00:12:21;;;;;;;2.78;0.98;;;18.20;99.90;;;;;;20795460;28;20037;-38
2022/06/17 00:22:22;;;;;;;1.35;0.77;;;18.00;99.90;;;;;;20792475;28;20057;-38
2022/06/17 00:32:24;;;;;;;2.38;1.30;;;18.00;99.90;;;;;;20795726;28;20064;-38
2022/06/17 00:42:26;;;;;;;2.05;1.30;;;17.90;99.90;;;;;;20796211;28;20064;-38
2022/06/17 00:52:39;;;;;;;1.73;0.93;;;17.80;99.90;;;;;;20784315;28;20052;-38
2022/06/17 01:02:54;;;;;;;4.97;1.73;;;17.70;99.90;;;;;;20784765;28;21458;-37
2022/06/17 01:13:06;;;;;;;1.65;0.68;;;17.60;99.90;;;;;;20789885;28;21418;-38
2022/06/17 01:23:13;;;;;;;2.13;0.95;;;17.40;99.90;;;;;;20740582;28;20883;-38
2022/06/17 01:33:33;;;;;;;6.35;2.25;;;17.30;99.90;;;;;;20713455;28;20765;-38
2022/06/17 01:43:45;;;;;;;1.85;1.00;;;17.30;99.90;;;;;;20760973;28;22310;-38
2022/06/17 01:53:49;;;;;;;3.13;1.38;;;17.30;99.90;;;;;;20791807;28;20041;-38
2022/06/17 02:04:03;;;;;;;2.90;1.30;;;17.40;99.90;;;;;;20793933;28;20041;-38
2022/06/17 02:14:09;;;;;;;5.60;1.80;;;17.40;99.90;;;;;;20792350;28;20115;-37
2022/06/17 02:24:11;;;;;;;3.33;1.35;;;17.40;99.90;;;;;;20806595;28;20041;-38
2022/06/17 02:34:17;;;;;;;2.72;1.50;;;17.40;99.90;;;;;;20746079;28;20188;-38
2022/06/17 02:44:32;;;;;;;3.15;1.67;;;17.40;99.90;;;;;;20758394;28;20037;-38
2022/06/17 02:54:39;;;;;;;2.72;1.83;;;17.10;99.90;;;;;;20788010;28;20183;-38
2022/06/17 03:04:43;;;;;;;5.07;1.60;;;17.00;99.90;;;;;;20806138;28;21450;-38
2022/06/17 03:15:07;;;;;;;3.75;1.90;;;17.00;99.90;;;;;;20805634;28;20264;-37
2022/06/17 03:25:20;;;;;;;3.38;1.50;;;17.00;99.90;;;;;;20735775;28;20060;-37
2022/06/17 03:35:25;;;;;;;2.50;1.23;;;17.10;99.90;;;;;;20801391;28;20041;-38
2022/06/17 03:45:31;;;;;;;5.70;2.15;;;17.50;99.90;;;;;;20804501;28;20052;-38
2022/06/17 03:55:33;;;;;;;3.55;2.05;;;17.90;99.90;;;;;;20816770;28;20053;-38
2022/06/17 04:05:34;;;;;;;3.63;1.70;;;18.20;99.90;;;;;;20809736;28;20051;-38
2022/06/17 04:15:42;;;;;;;4.28;1.75;;;18.40;99.90;;;;;;20808384;28;20052;-37
2022/06/17 04:25:55;;;;;;;3.25;1.95;;;18.40;99.90;;;;;;20803911;28;20049;-38
2022/06/17 04:36:13;;;;;;;6.30;2.60;;;18.40;99.90;;;;;;20805846;28;20044;-38
2022/06/17 04:46:25;;;;;;;5.43;1.95;;;18.60;99.90;;;;;;20808506;28;20813;-37
2022/06/17 04:56:31;;;;;;;3.08;2.13;;;18.60;99.90;;;;;;20803816;28;21367;-38
2022/06/17 05:06:33;;;;;;;3.63;1.73;;;18.60;99.90;;;;;;20802888;28;20089;-38
2022/06/17 05:16:34;;;;;;;3.47;2.15;;;18.60;99.90;;;;;;20797203;28;20045;-38
2022/06/17 05:26:35;;;;;;;6.20;2.50;;;18.70;99.90;;;;;;20807840;28;20714;-37
2022/06/17 05:36:36;;;;;;;4.53;2.15;;;18.80;99.90;;;;;;20800725;28;21086;-38
2022/06/17 05:46:37;;;;;;;4.88;1.85;;;19.00;99.90;;;;;;20787265;28;20400;-38
2022/06/17 05:56:38;;;;;;;4.43;2.42;;;19.20;99.90;;;;;;20760063;28;20053;-37
2022/06/17 06:06:39;;;;;;;6.55;2.78;;;19.30;99.90;;;;;;20763253;28;20402;-38
2022/06/17 06:16:40;;;;;;;4.97;1.60;;;19.50;99.90;;;;;;20799967;28;20539;-38
2022/06/17 06:26:41;;;;;;;4.63;2.50;;;19.50;99.90;;;;;;20793869;28;20326;-38
2022/06/17 06:36:42;;;;;;;4.68;2.72;;;19.60;99.90;;;;;;20808565;28;20060;-37
2022/06/17 06:46:44;;;;;;;3.97;1.98;;;19.70;99.90;;;;;;20797410;28;20042;-38
2022/06/17 06:56:45;;;;;;;3.45;1.98;;;19.80;99.90;;;;;;20778312;28;20548;-37
2022/06/17 07:06:47;;;;;;;6.72;1.63;;;20.50;99.90;;;;;;20805882;28;20052;-38
2022/06/17 07:16:49;;;;;;;13.30;1.65;;;20.70;99.90;;;;;;20813753;28;20048;-38
2022/06/17 07:26:50;;;;;;;4.43;1.70;;;20.90;99.90;;;;;;20808884;28;20037;-38
2022/06/17 07:47:17;;;;;;;2.97;1.67;;;21.30;99.90;;;;;;20769341;28;20060;-37
2022/06/17 07:57:18;;;;;;;2.45;1.38;;;21.70;99.90;;;;;;20789432;28;20658;-39
2022/06/17 08:07:20;;;;;;;3.28;1.42;;;21.70;99.90;;;;;;20755175;28;20050;-39
2022/06/17 08:17:22;;;;;;;2.63;1.40;;;22.00;99.90;;;;;;20766437;28;20435;-39
2022/06/17 08:27:23;;;;;;;4.28;1.70;;;22.40;99.90;;;;;;20784826;28;20045;-40
2022/06/17 08:37:25;;;;;;;3.53;1.25;;;22.80;99.90;;;;;;20784665;28;20489;-40
2022/06/17 08:47:44;;;;;;;3.03;0.95;;;23.10;99.90;;;;;;20774847;28;20053;-39
2022/06/17 08:58:17;;;;;;;3.75;1.45;;;23.40;99.90;;;;;;20769623;28;20477;-39
2022/06/17 09:09:00;;;;;;;2.67;1.70;;;23.70;99.90;;;;;;20753674;28;20414;-39
2022/06/17 09:19:03;;;;;;;3.03;1.58;;;23.80;99.90;;;;;;20779876;28;21341;-39
2022/06/17 09:29:19;;;;;;;2.00;1.10;;;24.30;99.90;;;;;;20786625;28;20121;-39
2022/06/17 09:39:44;;;;;;;1.67;0.90;;;24.40;99.90;;;;;;20790833;28;20387;-39
2022/06/17 09:49:54;;;;;;;2.20;1.15;;;24.70;99.90;;;;;;20784459;28;20601;-40
2022/06/17 10:00:14;;;;;;;1.52;0.77;;;25.20;99.90;;;;;;20781199;28;20252;-39
2022/06/17 10:10:15;;;;;;;2.20;1.48;;;25.40;99.90;;;;;;20771566;28;20055;-39
2022/06/17 10:20:31;;;;;;;2.65;1.60;;;25.70;99.90;;;;;;20774684;28;20524;-40
2022/06/17 10:30:42;;;;;;;5.57;1.35;;;26.00;99.90;;;;;;20773880;28;20080;-39
2022/06/17 10:40:43;;;;;;;2.45;1.30;;;26.20;98.20;;;;;;20760642;28;20038;-39
2022/06/17 10:50:44;;;;;;;2.75;1.38;;;26.40;97.80;;;;;;20696944;28;20563;-39
2022/06/17 11:00:56;;;;;;;2.40;1.33;;;26.80;97.50;;;;;;20701376;28;20512;-39
2022/06/17 11:12:02;;;;;;;1.85;0.90;;;26.90;97.40;;;;;;20764736;28;20054;-40
2022/06/17 11:21:28;;;;;;;2.75;1.27;;;27.10;98.60;;;;;;20762940;28;21548;-40
2022/06/17 11:31:33;;;;;;;1.23;0.73;;;27.30;97.50;;;;;;20766493;28;20038;-40
2022/06/17 11:41:35;;;;;;;1.30;0.68;;;27.40;97.40;;;;;;20783525;28;20041;-39
2022/06/17 11:51:42;;;;;;;1.60;0.80;;;27.90;95.80;;;;;;20764170;28;20045;-40
2022/06/17 12:02:01;;;;;;;1.88;0.90;;;28.10;94.50;;;;;;20736790;28;20044;-40
2022/06/17 12:12:09;;;;;;;1.88;0.80;;;28.20;93.50;;;;;;20770180;28;20045;-40
2022/06/17 12:22:24;;;;;;;1.35;0.60;;;28.10;93.90;;;;;;20767517;28;20072;-39
2022/06/17 12:32:42;;;;;;;1.75;0.70;;;28.40;94.60;;;;;;20748926;28;20060;-40
2022/06/17 12:43:06;;;;;;;1.63;1.08;;;28.80;94.80;;;;;;20779431;28;20439;-40
2022/06/17 12:53:28;;;;;;;0.95;0.55;;;29.20;92.30;;;;;;20777285;28;20048;-40
2022/06/17 13:04:00;;;;;;;1.60;0.68;;;29.00;92.20;;;;;;20785035;28;20052;-40
2022/06/17 13:14:26;;;;;;;1.80;0.60;;;28.90;92.80;;;;;;20777686;28;20041;-40
2022/06/17 13:24:45;;;;;;;1.05;0.63;;;28.90;91.60;;;;;;20780439;28;20847;-40
2022/06/17 13:35:03;;;;;;;1.08;0.63;;;29.00;92.80;;;;;;20775451;28;20344;-40
2022/06/17 13:45:25;;;;;;;1.10;0.52;;;29.30;91.60;;;;;;20782450;28;20060;-40
2022/06/17 13:55:45;;;;;;;2.13;0.63;;;29.50;91.50;;;;;;20781383;28;20470;-40
2022/06/17 14:06:03;;;;;;;1.42;0.80;;;29.40;90.90;;;;;;20807617;28;20113;-40
2022/06/17 14:16:13;;;;;;;3.08;1.33;;;29.30;91.20;;;;;;20788719;28;20166;-40
2022/06/17 14:26:33;;;;;;;1.35;0.70;;;29.20;91.80;;;;;;20783556;28;20461;-40
2022/06/17 14:37:04;;;;;;;2.17;1.10;;;29.20;91.10;;;;;;20773172;28;20325;-40
2022/06/17 14:47:29;;;;;;;1.95;0.90;;;29.20;92.00;;;;;;20782210;28;20045;-40
2022/06/17 14:57:43;;;;;;;1.95;0.88;;;29.30;92.10;;;;;;20777417;28;20072;-40
2022/06/17 15:08:11;;;;;;;1.00;0.60;;;29.30;92.00;;;;;;20776572;28;21414;-40
2022/06/17 15:18:17;;;;;;;1.88;0.70;;;29.20;92.90;;;;;;20759851;28;20049;-40
2022/06/17 15:28:42;;;;;;;1.30;0.60;;;29.40;91.60;;;;;;20757366;28;20045;-40
2022/06/17 15:38:51;;;;;;;1.77;0.80;;;29.50;91.90;;;;;;20770066;28;20080;-40
2022/06/17 15:49:05;;;;;;;3.47;1.00;;;29.40;91.60;;;;;;20771074;28;20038;-40
2022/06/17 15:59:22;;;;;;;1.05;0.50;;;29.40;91.70;;;;;;20763550;28;20053;-40
2022/06/17 16:09:29;;;;;;;;;;;29.50;91.70;;;;;;20754383;28;20449;-40
2022/06/17 16:19:30;;;;;;;1.40;0.80;;;29.30;91.80;;;;;;20753152;28;19921;-40
2022/06/17 16:29:39;;;;;;;1.55;0.70;;;29.20;91.80;;;;;;20755156;28;20048;-40
2022/06/17 16:39:40;;;;;;;1.90;0.73;;;29.10;91.50;;;;;;20771469;28;20091;-40
2022/06/17 16:49:47;;;;;;;1.60;0.98;;;29.10;92.20;;;;;;20790001;28;20041;-40
2022/06/17 16:59:50;;;;;;;1.52;0.60;;;28.90;92.70;;;;;;20793355;28;20732;-40
2022/06/17 17:09:53;;;;;;;1.40;0.75;;;29.10;92.00;;;;;;20794964;28;20120;-40
2022/06/17 17:19:54;;;;;;;1.13;0.50;;;29.10;92.50;;;;;;20785670;28;20040;-40
2022/06/17 17:29:56;;;;;;;1.65;0.98;;;29.00;92.80;;;;;;20780892;28;20043;-39
2022/06/17 17:39:57;;;;;;;1.77;0.77;;;28.90;92.10;;;;;;20801148;28;20045;-40
2022/06/17 17:50:08;;;;;;;4.95;1.20;;;28.80;92.80;;;;;;20798741;28;20554;-40
2022/06/17 18:00:18;;;;;;;2.08;0.98;;;28.70;93.00;;;;;;20809652;28;20516;-40
2022/06/17 18:10:20;;;;;;;1.35;0.73;;;28.60;93.50;;;;;;20790527;28;20468;-40
2022/06/17 18:20:23;;;;;;;1.10;0.60;;;28.60;94.00;;;;;;20788258;28;20404;-39
2022/06/17 18:30:26;;;;;;;1.42;0.60;;;28.60;94.00;;;;;;20793568;28;20041;-40
2022/06/17 18:40:30;;;;;;;3.58;1.08;;;28.20;94.30;;;;;;20784542;28;20045;-39
2022/06/17 18:50:36;;;;;;;2.72;0.90;;;28.00;94.80;;;;;;20797469;28;20515;-40
2022/06/17 19:00:41;;;;;;;1.40;0.80;;;27.90;95.90;;;;;;20790383;28;20056;-40
2022/06/17 19:21:02;;;;;;;1.83;0.93;;;27.40;96.50;;;;;;20787824;28;20076;-40
2022/06/17 19:31:05;;;;;;;2.90;1.20;;;27.20;97.90;;;;;;20782154;28;20033;-39
2022/06/17 19:51:30;;;;;;;1.92;1.25;;;26.60;99.90;;;;;;20787350;28;20546;-39
2022/06/17 20:01:36;;;;;;;1.88;0.73;;;26.30;99.90;;;;;;20765987;28;20448;-39
2022/06/17 20:11:37;;;;;;;1.92;0.80;;;26.00;99.90;;;;;;20777063;28;20045;-39
2022/06/17 20:21:39;;;;;;;2.70;0.90;;;25.60;99.90;;;;;;20725069;28;20398;-39
2022/06/17 20:31:40;;;;;;;2.08;1.05;;;25.20;99.90;;;;;;20771838;28;20408;-39
2022/06/17 20:41:42;;;;;;;4.60;1.15;;;25.00;99.90;;;;;;20744334;28;20049;-39
2022/06/17 20:51:46;;;;;;;2.40;1.30;;;24.80;99.90;;;;;;20799161;28;20462;-39
2022/06/17 21:01:51;;;;;;;2.83;1.33;;;24.50;99.90;;;;;;20782659;28;20053;-39
2022/06/17 21:11:52;;;;;;;2.15;1.13;;;24.20;99.90;;;;;;20794951;28;20582;-39
2022/06/17 21:21:54;;;;;;;2.75;1.35;;;23.90;99.90;;;;;;20800013;28;20131;-39
2022/06/17 21:31:55;;;;;;;1.88;1.20;;;23.70;99.90;;;;;;20810416;28;20033;-40
2022/06/17 21:41:56;;;;;;;2.55;0.90;;;23.60;99.90;;;;;;20803438;28;20048;-39
2022/06/17 21:51:59;;;;;;;3.00;1.27;;;23.50;99.90;;;;;;20810880;28;20041;-40
2022/06/17 22:02:01;;;;;;;2.03;1.02;;;23.50;99.90;;;;;;20800124;28;20052;-39
2022/06/17 22:12:09;;;;;;;4.65;1.83;;;23.40;99.90;;;;;;20793024;28;20448;-39
2022/06/17 22:22:27;;;;;;;3.17;1.40;;;23.30;99.90;;;;;;20794281;28;20056;-39
2022/06/17 22:32:35;;;;;;;2.13;1.40;;;23.20;99.90;;;;;;20767328;28;20879;-39
2022/06/17 22:42:36;;;;;;;11.35;3.42;;;23.20;99.90;;;;;;20806425;28;20056;-39
2022/06/17 22:52:37;;;;;;;5.32;2.47;;;23.30;99.90;;;;;;20811728;28;23076;-39
2022/06/17 23:02:38;;;;;;;4.38;2.33;;;23.30;99.90;;;;;;20807312;28;20054;-39
2022/06/17 23:12:39;;;;;;;2.85;1.50;;;23.20;99.90;;;;;;20802979;28;20038;-39
2022/06/17 23:22:42;;;;;;;2.35;1.35;;;23.20;99.90;;;;;;20789217;28;20518;-39
2022/06/17 23:32:47;;;;;;;2.70;1.20;;;23.10;99.90;;;;;;20786537;28;20335;-39
2022/06/17 23:42:48;;;;;;;2.67;1.23;;;23.00;99.90;;;;;;20782454;28;20060;-39
2022/06/17 23:52:51;;;;;;;3.35;1.60;;;22.80;99.90;;;;;;20778570;28;20037;-39
